Time;durP1;ratioP1;P1;durP2;ratioP2;P2;SDS_P1;SDS_P2;PMS_P1;PMS_P2;Temp;Humidity;BMP_temperature;BMP_pressure;BME280_temperature;BME280_humidity;BME280_pressure;Samples;Min_cycle;Max_cycle;Signal;HPM_P1;HPM_P2
2024/04/09 00:02:13;;;;;;;4.78;1.70;;;17.20;87.60;;;;;;5411307;26;20003;-66
2024/04/09 00:04:39;;;;;;;2.13;1.65;;;17.20;87.40;;;;;;5409363;26;20006;-67
2024/04/09 00:07:05;;;;;;;2.97;1.50;;;17.20;87.30;;;;;;5418017;26;20577;-66
2024/04/09 00:09:31;;;;;;;2.42;1.60;;;17.30;87.20;;;;;;5414339;26;20061;-66
2024/04/09 00:11:58;;;;;;;2.20;1.50;;;17.30;87.10;;;;;;5419426;26;20007;-66
2024/04/09 00:14:24;;;;;;;2.58;1.40;;;17.30;87.00;;;;;;5408545;26;20345;-67
2024/04/09 00:16:53;;;;;;;2.50;1.55;;;17.20;86.90;;;;;;5411203;26;20000;-64
2024/04/09 00:19:23;;;;;;;2.83;1.45;;;17.20;86.90;;;;;;5411407;26;20018;-65
2024/04/09 00:21:52;;;;;;;4.03;1.30;;;17.20;86.80;;;;;;5421638;26;19994;-67
2024/04/09 00:24:18;;;;;;;2.95;1.50;;;17.20;86.80;;;;;;5435679;26;19998;-65
2024/04/09 00:26:44;;;;;;;3.50;1.70;;;17.20;86.80;;;;;;5409001;26;20032;-66
2024/04/09 00:29:10;;;;;;;1.40;1.23;;;17.20;86.80;;;;;;5415551;26;20003;-66
2024/04/09 00:31:36;;;;;;;2.17;1.40;;;17.20;86.80;;;;;;5413614;26;20014;-67
2024/04/09 00:34:02;;;;;;;2.13;1.40;;;17.20;86.80;;;;;;5413076;26;20760;-65
2024/04/09 00:36:29;;;;;;;3.30;1.40;;;17.20;86.80;;;;;;5415408;26;20042;-66
2024/04/09 00:38:56;;;;;;;2.00;1.40;;;17.20;86.70;;;;;;5400322;26;20034;-66
2024/04/09 00:41:22;;;;;;;3.38;1.40;;;17.20;86.70;;;;;;5409554;26;19995;-67
2024/04/09 00:43:47;;;;;;;2.38;1.60;;;17.10;86.70;;;;;;5402499;26;20408;-67
2024/04/09 00:46:15;;;;;;;2.40;1.30;;;17.20;86.70;;;;;;5403886;26;20416;-66
2024/04/09 00:48:42;;;;;;;3.05;1.70;;;17.10;86.70;;;;;;5407327;26;20591;-66
2024/04/09 00:51:11;;;;;;;3.15;2.05;;;17.10;86.80;;;;;;5421880;26;20011;-66
2024/04/09 00:53:39;;;;;;;3.80;2.20;;;17.00;86.90;;;;;;5405909;26;19990;-66
2024/04/09 00:56:05;;;;;;;2.72;2.00;;;17.00;87.00;;;;;;5423174;26;20023;-66
2024/04/09 00:58:31;;;;;;;2.97;1.58;;;16.90;87.20;;;;;;5401978;26;20443;-65
2024/04/09 01:00:59;;;;;;;2.85;1.65;;;16.90;87.20;;;;;;5422942;26;20092;-66
2024/04/09 01:03:26;;;;;;;2.35;1.40;;;16.90;87.20;;;;;;5406589;26;20007;-66
2024/04/09 01:05:52;;;;;;;3.00;1.90;;;16.90;87.20;;;;;;5395225;26;20015;-66
2024/04/09 01:08:18;;;;;;;3.75;1.90;;;16.80;87.30;;;;;;5410155;26;20000;-66
2024/04/09 01:10:43;;;;;;;5.55;2.15;;;16.80;87.40;;;;;;5413209;26;20466;-65
2024/04/09 01:13:09;;;;;;;3.08;1.77;;;16.70;87.50;;;;;;5409971;26;20011;-65
2024/04/09 01:15:36;;;;;;;2.88;1.50;;;16.70;87.50;;;;;;5416348;26;20003;-64
2024/04/09 01:18:03;;;;;;;2.22;1.20;;;16.70;87.60;;;;;;5409727;26;20009;-65
2024/04/09 01:20:28;;;;;;;1.83;1.20;;;16.70;88.10;;;;;;5413635;26;20008;-64
2024/04/09 01:22:54;;;;;;;2.17;1.17;;;16.60;87.50;;;;;;5404601;26;20335;-66
2024/04/09 01:25:20;;;;;;;1.42;1.05;;;16.60;87.60;;;;;;5417183;26;20003;-66
2024/04/09 01:27:46;;;;;;;1.10;0.90;;;16.60;87.70;;;;;;5412183;26;20007;-65
2024/04/09 01:30:12;;;;;;;0.95;0.90;;;16.50;87.70;;;;;;5410880;26;20004;-66
2024/04/09 01:32:39;;;;;;;1.33;0.90;;;16.60;87.90;;;;;;5406046;26;20024;-65
2024/04/09 01:35:06;;;;;;;2.08;1.08;;;16.50;87.90;;;;;;5418741;26;20031;-65
2024/04/09 01:37:32;;;;;;;1.42;1.05;;;16.50;87.80;;;;;;5398502;26;20004;-64
2024/04/09 01:39:58;;;;;;;3.85;1.52;;;16.50;87.80;;;;;;5422617;26;20356;-65
2024/04/09 01:42:23;;;;;;;5.13;1.80;;;16.50;87.80;;;;;;5403392;26;20026;-66
2024/04/09 01:44:49;;;;;;;3.08;1.92;;;16.50;88.00;;;;;;5415318;26;20090;-66
2024/04/09 01:47:16;;;;;;;4.28;2.03;;;16.40;88.10;;;;;;5409217;26;20067;-66
2024/04/09 01:49:41;;;;;;;3.20;1.75;;;16.40;88.20;;;;;;5401508;26;20002;-67
2024/04/09 01:52:08;;;;;;;2.85;1.70;;;16.40;88.20;;;;;;5402726;26;19996;-66
2024/04/09 01:54:34;;;;;;;2.88;1.75;;;16.40;88.20;;;;;;5418410;26;20020;-66
2024/04/09 01:57:00;;;;;;;3.25;1.90;;;16.40;88.20;;;;;;5406050;26;20006;-65
2024/04/09 01:59:26;;;;;;;6.47;2.55;;;16.40;88.30;;;;;;5408889;26;19996;-66
2024/04/09 02:01:52;;;;;;;5.28;2.25;;;16.40;88.50;;;;;;5404456;26;20010;-66
2024/04/09 02:04:18;;;;;;;3.65;2.33;;;16.30;88.70;;;;;;5413155;26;19999;-64
2024/04/09 02:06:44;;;;;;;3.38;1.92;;;16.30;88.80;;;;;;5416456;26;20018;-66
2024/04/09 02:09:11;;;;;;;4.00;2.20;;;16.30;88.70;;;;;;5409594;26;20010;-66
2024/04/09 02:11:37;;;;;;;3.97;2.00;;;16.30;88.90;;;;;;5408543;26;20007;-65
2024/04/09 02:14:04;;;;;;;2.92;1.70;;;16.30;89.00;;;;;;5399050;26;19995;-65
2024/04/09 02:16:30;;;;;;;3.55;1.85;;;16.30;89.10;;;;;;5410990;26;20454;-65
2024/04/09 02:18:55;;;;;;;3.90;1.75;;;16.30;89.00;;;;;;5410897;26;19996;-65
2024/04/09 02:21:22;;;;;;;2.15;1.30;;;16.30;88.90;;;;;;5407988;26;20008;-65
2024/04/09 02:23:51;;;;;;;2.22;1.08;;;16.30;88.80;;;;;;5397680;26;20071;-65
2024/04/09 02:26:17;;;;;;;1.50;1.25;;;16.30;88.70;;;;;;5414286;26;19999;-63
2024/04/09 02:28:43;;;;;;;3.10;1.30;;;16.30;88.70;;;;;;5413348;26;19998;-63
2024/04/09 02:31:09;;;;;;;1.65;1.20;;;16.20;88.70;;;;;;5402492;26;20396;-65
2024/04/09 02:33:35;;;;;;;4.25;1.67;;;16.20;88.70;;;;;;5407422;26;20022;-63
2024/04/09 02:36:11;;;;;;;2.92;1.50;;;16.20;88.90;;;;;;5408466;26;20003;-65
2024/04/09 02:38:37;;;;;;;3.35;1.73;;;16.20;89.00;;;;;;5408291;26;20445;-65
2024/04/09 02:41:07;;;;;;;3.13;1.55;;;16.20;89.10;;;;;;5407384;26;20007;-65
2024/04/09 02:43:33;;;;;;;3.42;1.90;;;16.10;89.20;;;;;;5412501;26;20008;-64
2024/04/09 02:45:59;;;;;;;3.15;1.70;;;16.10;89.40;;;;;;5407602;26;20438;-65
2024/04/09 02:48:26;;;;;;;1.75;1.33;;;16.10;89.50;;;;;;5406150;26;20072;-65
2024/04/09 02:50:56;;;;;;;2.75;1.52;;;16.10;89.50;;;;;;5407610;26;20004;-64
2024/04/09 02:53:22;;;;;;;1.65;1.30;;;16.10;89.60;;;;;;5410032;26;20337;-65
2024/04/09 02:56:18;;;;;;;1.85;1.27;;;16.10;89.50;;;;;;5407651;26;20004;-65
2024/04/09 02:58:43;;;;;;;1.50;1.17;;;16.10;89.40;;;;;;5414063;26;20466;-64
2024/04/09 03:01:10;;;;;;;2.42;1.20;;;16.10;89.40;;;;;;5411986;26;20018;-65
2024/04/09 03:03:37;;;;;;;1.23;0.98;;;16.10;89.50;;;;;;5411452;26;20354;-65
2024/04/09 03:06:07;;;;;;;1.63;1.02;;;16.10;89.50;;;;;;5402884;26;20003;-66
2024/04/09 03:08:33;;;;;;;4.30;1.60;;;16.10;89.50;;;;;;5404265;26;20000;-65
2024/04/09 03:10:58;;;;;;;4.85;1.50;;;16.00;90.20;;;;;;5417396;26;20044;-66
2024/04/09 03:13:24;;;;;;;2.83;1.65;;;16.00;90.00;;;;;;5409360;26;20000;-66
2024/04/09 03:15:49;;;;;;;2.45;1.10;;;16.00;90.00;;;;;;5396095;26;20070;-66
2024/04/09 03:18:17;;;;;;;2.67;1.20;;;16.00;90.00;;;;;;5411210;26;20011;-66
2024/04/09 03:20:43;;;;;;;2.90;1.42;;;16.00;90.00;;;;;;5408630;26;20494;-66
2024/04/09 03:23:08;;;;;;;2.97;1.40;;;16.00;90.00;;;;;;5414826;26;20018;-66
2024/04/09 03:25:34;;;;;;;2.15;1.20;;;15.90;90.10;;;;;;5414125;26;20568;-66
2024/04/09 03:27:59;;;;;;;1.48;0.82;;;15.90;90.10;;;;;;5396375;26;20012;-66
2024/04/09 03:30:25;;;;;;;1.77;1.10;;;16.00;90.10;;;;;;5417551;26;20007;-64
2024/04/09 03:32:53;;;;;;;1.58;1.05;;;16.00;90.20;;;;;;5413630;26;20018;-65
2024/04/09 03:35:19;;;;;;;1.80;1.00;;;16.00;90.20;;;;;;5410782;26;20007;-65
2024/04/09 03:37:47;;;;;;;1.17;0.80;;;16.00;90.20;;;;;;5420325;26;20357;-65
2024/04/09 03:40:12;;;;;;;1.98;0.90;;;16.00;90.10;;;;;;5393992;26;21838;-65
2024/04/09 03:42:38;;;;;;;2.00;0.90;;;16.00;90.10;;;;;;5423402;26;19995;-65
2024/04/09 03:45:08;;;;;;;1.00;0.88;;;16.00;90.10;;;;;;5410121;26;20030;-66
2024/04/09 03:47:34;;;;;;;1.27;0.75;;;16.00;90.10;;;;;;5414940;26;20006;-64
2024/04/09 03:50:00;;;;;;;1.65;0.88;;;16.00;90.10;;;;;;5427815;26;20365;-64
2024/04/09 03:52:25;;;;;;;2.05;1.20;;;16.00;90.10;;;;;;5418136;26;20011;-67
2024/04/09 03:54:51;;;;;;;1.52;1.00;;;16.00;90.20;;;;;;5411426;26;19991;-67
2024/04/09 03:57:17;;;;;;;1.60;1.05;;;16.00;90.10;;;;;;5411303;26;20011;-66
2024/04/09 03:59:42;;;;;;;2.13;1.30;;;16.00;90.10;;;;;;5411818;26;19995;-65
2024/04/09 04:02:08;;;;;;;2.60;1.35;;;16.00;90.10;;;;;;5422686;26;20007;-66
2024/04/09 04:04:34;;;;;;;1.65;1.02;;;16.00;90.10;;;;;;5406998;26;20011;-67
2024/04/09 04:06:59;;;;;;;1.45;1.23;;;16.00;90.10;;;;;;5417864;26;20363;-66
2024/04/09 04:09:25;;;;;;;2.90;1.60;;;16.00;90.10;;;;;;5413862;26;20469;-66
2024/04/09 04:11:51;;;;;;;3.80;1.90;;;16.00;90.10;;;;;;5411918;26;20003;-66
2024/04/09 04:14:16;;;;;;;3.78;2.30;;;16.00;90.20;;;;;;5412527;26;20050;-66
2024/04/09 04:16:42;;;;;;;4.25;2.60;;;15.90;90.40;;;;;;5405521;26;20502;-66
2024/04/09 04:19:08;;;;;;;4.55;2.60;;;15.90;90.50;;;;;;5428332;26;20014;-66
2024/04/09 04:21:33;;;;;;;2.78;1.92;;;15.90;90.50;;;;;;5410193;26;20003;-65
2024/04/09 04:23:59;;;;;;;3.58;2.15;;;15.90;90.50;;;;;;5404947;26;20003;-66
2024/04/09 04:26:25;;;;;;;3.30;2.17;;;15.90;90.60;;;;;;5421666;26;20018;-67
2024/04/09 04:28:53;;;;;;;4.22;2.83;;;15.90;90.60;;;;;;5406603;26;20014;-66
2024/04/09 04:31:20;;;;;;;4.43;2.50;;;15.90;90.70;;;;;;5404618;26;20037;-67
2024/04/09 04:33:47;;;;;;;4.93;2.70;;;15.80;90.70;;;;;;5393337;26;20376;-67
2024/04/09 04:36:14;;;;;;;4.25;3.00;;;15.80;90.70;;;;;;5396337;26;20017;-67
2024/04/09 04:38:41;;;;;;;4.57;2.35;;;15.80;90.90;;;;;;5404794;26;20019;-67
2024/04/09 04:41:06;;;;;;;4.05;2.50;;;15.80;90.90;;;;;;5401500;26;20330;-67
2024/04/09 04:43:33;;;;;;;4.68;3.55;;;15.80;90.90;;;;;;5409817;26;19992;-66
2024/04/09 04:45:59;;;;;;;6.25;4.35;;;15.80;91.00;;;;;;5411236;26;20056;-66
2024/04/09 04:48:25;;;;;;;7.80;5.00;;;15.70;91.20;;;;;;5407452;26;20331;-66
2024/04/09 04:50:52;;;;;;;5.38;3.80;;;15.70;91.40;;;;;;5408145;26;19995;-67
2024/04/09 04:53:17;;;;;;;7.35;3.80;;;15.70;91.50;;;;;;5413206;26;20396;-65
2024/04/09 04:55:43;;;;;;;6.65;4.47;;;15.70;91.50;;;;;;5413795;26;20073;-66
2024/04/09 04:58:09;;;;;;;6.60;4.40;;;15.70;91.50;;;;;;5395765;26;20010;-66
2024/04/09 05:00:39;;;;;;;5.00;3.30;;;15.60;91.50;;;;;;5401080;26;19999;-66
2024/04/09 05:03:05;;;;;;;5.13;3.28;;;15.60;91.80;;;;;;5405808;26;20036;-67
2024/04/09 05:05:31;;;;;;;4.10;2.70;;;15.60;91.40;;;;;;5407885;26;20515;-67
2024/04/09 05:07:57;;;;;;;5.55;3.65;;;15.60;91.40;;;;;;5406313;26;20444;-67
2024/04/09 05:10:23;;;;;;;4.47;3.30;;;15.60;91.40;;;;;;5417921;26;20017;-67
2024/04/09 05:12:50;;;;;;;4.88;3.40;;;15.60;91.40;;;;;;5394125;26;19991;-67
2024/04/09 05:15:17;;;;;;;4.35;2.67;;;15.60;91.40;;;;;;5404648;26;20026;-67
2024/04/09 05:17:44;;;;;;;3.88;2.53;;;15.50;91.30;;;;;;5393142;26;19996;-66
2024/04/09 05:20:10;;;;;;;5.60;2.92;;;15.50;91.30;;;;;;5391500;26;20010;-67
2024/04/09 05:22:41;;;;;;;2.92;2.38;;;15.50;91.30;;;;;;5391768;26;20335;-66
2024/04/09 05:25:09;;;;;;;4.40;3.08;;;15.50;91.30;;;;;;5402150;26;20023;-65
2024/04/09 05:27:35;;;;;;;3.53;2.70;;;15.50;91.30;;;;;;5410113;26;20342;-65
2024/04/09 05:30:00;;;;;;;4.20;2.80;;;15.50;91.20;;;;;;5405289;26;20043;-64
2024/04/09 05:32:29;;;;;;;3.20;2.50;;;15.50;91.20;;;;;;5405995;26;20008;-66
2024/04/09 05:34:55;;;;;;;5.18;3.47;;;15.50;91.20;;;;;;5396511;26;20004;-65
2024/04/09 05:37:21;;;;;;;3.78;2.92;;;15.50;91.20;;;;;;5397835;26;20003;-66
2024/04/09 05:39:48;;;;;;;4.25;2.85;;;15.50;91.20;;;;;;5408067;26;20010;-66
2024/04/09 05:42:14;;;;;;;5.05;3.65;;;15.50;91.10;;;;;;5401975;26;20425;-66
2024/04/09 05:44:39;;;;;;;4.38;3.38;;;15.40;91.20;;;;;;5390969;26;20443;-65
2024/04/09 05:47:05;;;;;;;5.30;3.30;;;15.40;91.20;;;;;;5398664;26;20010;-66
2024/04/09 05:49:32;;;;;;;3.42;2.70;;;15.40;91.20;;;;;;5392390;26;20004;-66
2024/04/09 05:51:57;;;;;;;5.03;3.80;;;15.40;91.10;;;;;;5394190;26;20003;-66
2024/04/09 05:54:23;;;;;;;5.13;4.05;;;15.30;91.10;;;;;;5398641;26;20008;-66
2024/04/09 05:56:52;;;;;;;6.53;4.13;;;15.30;91.20;;;;;;5403679;26;20429;-65
2024/04/09 05:59:18;;;;;;;3.90;2.90;;;15.30;91.20;;;;;;5426411;26;19999;-67
2024/04/09 06:01:44;;;;;;;6.93;3.65;;;15.30;91.20;;;;;;5421451;26;20081;-65
2024/04/09 06:04:10;;;;;;;3.33;2.63;;;15.20;91.20;;;;;;5405128;26;20081;-68
2024/04/09 06:06:35;;;;;;;3.70;2.20;;;15.20;91.10;;;;;;5417862;26;20014;-67
2024/04/09 06:09:01;;;;;;;2.45;1.90;;;15.10;91.10;;;;;;5415762;26;20363;-65
2024/04/09 06:11:27;;;;;;;3.72;1.95;;;15.10;91.10;;;;;;5403262;26;20076;-66
2024/04/09 06:13:53;;;;;;;3.63;1.77;;;15.10;91.10;;;;;;5408035;26;20057;-65
2024/04/09 06:16:19;;;;;;;2.10;1.88;;;15.10;91.10;;;;;;5400947;26;20438;-65
2024/04/09 06:18:45;;;;;;;3.45;1.70;;;15.00;91.00;;;;;;5398903;26;20027;-65
2024/04/09 06:21:10;;;;;;;2.88;1.75;;;15.10;91.00;;;;;;5387301;26;20511;-66
2024/04/09 06:23:36;;;;;;;2.75;2.10;;;15.10;91.00;;;;;;5401053;26;20073;-66
2024/04/09 06:26:02;;;;;;;2.42;1.98;;;15.00;90.90;;;;;;5400667;26;20037;-66
2024/04/09 06:28:28;;;;;;;3.33;2.05;;;15.10;90.90;;;;;;5403778;26;20007;-66
2024/04/09 06:30:53;;;;;;;1.83;1.60;;;15.00;90.80;;;;;;5410772;26;20003;-65
2024/04/09 06:33:20;;;;;;;2.53;2.10;;;15.00;90.80;;;;;;5400245;26;20007;-66
2024/04/09 06:35:46;;;;;;;2.78;1.50;;;15.00;90.80;;;;;;5411802;26;20333;-66
2024/04/09 06:38:11;;;;;;;2.03;1.60;;;15.00;90.70;;;;;;5414031;26;19996;-66
2024/04/09 06:40:37;;;;;;;1.60;1.50;;;15.00;90.70;;;;;;5413366;26;19996;-67
2024/04/09 06:43:03;;;;;;;2.70;1.60;;;15.00;90.60;;;;;;5406028;26;19999;-66
2024/04/09 06:45:29;;;;;;;2.58;2.00;;;15.00;90.60;;;;;;5426865;26;20003;-66
2024/04/09 06:47:54;;;;;;;2.60;2.00;;;15.00;90.50;;;;;;5420507;26;20080;-66
2024/04/09 06:50:20;;;;;;;3.42;2.00;;;15.00;90.50;;;;;;5417948;26;20499;-67
2024/04/09 06:52:46;;;;;;;2.50;1.83;;;14.90;90.50;;;;;;5408255;26;20004;-66
2024/04/09 06:55:11;;;;;;;3.13;2.15;;;15.00;90.40;;;;;;5415025;26;20013;-66
2024/04/09 06:57:38;;;;;;;2.50;1.75;;;14.90;90.40;;;;;;5415353;26;20731;-65
2024/04/09 07:00:06;;;;;;;2.50;1.70;;;14.90;90.50;;;;;;5421301;26;20000;-65
2024/04/09 07:02:33;;;;;;;2.65;1.30;;;14.90;90.40;;;;;;5414416;26;20334;-65
2024/04/09 07:04:58;;;;;;;1.52;1.08;;;15.00;90.20;;;;;;5408998;26;20003;-65
2024/04/09 07:07:24;;;;;;;1.58;0.95;;;14.90;89.40;;;;;;5426922;26;19999;-64
2024/04/09 07:09:50;;;;;;;2.28;1.10;;;14.90;88.80;;;;;;5403266;26;20000;-65
2024/04/09 07:12:16;;;;;;;1.88;1.00;;;14.80;88.20;;;;;;5407369;26;20004;-66
2024/04/09 07:14:41;;;;;;;2.22;1.20;;;14.80;87.80;;;;;;5401216;26;20078;-65
2024/04/09 07:17:07;;;;;;;1.92;1.15;;;14.80;86.90;;;;;;5413555;26;20018;-65
2024/04/09 07:19:32;;;;;;;3.25;1.15;;;14.70;86.20;;;;;;5408228;26;19999;-65
2024/04/09 07:21:58;;;;;;;2.90;1.00;;;14.70;85.90;;;;;;5416971;26;20306;-65
2024/04/09 07:24:23;;;;;;;1.98;0.77;;;14.60;85.50;;;;;;5399643;26;20018;-65
2024/04/09 07:26:49;;;;;;;3.03;0.85;;;14.60;85.10;;;;;;5405230;26;20010;-66
2024/04/09 07:29:15;;;;;;;1.15;0.63;;;14.50;84.70;;;;;;5400419;26;20009;-66
2024/04/09 07:31:40;;;;;;;1.13;0.68;;;14.50;84.00;;;;;;5408140;26;20022;-64
2024/04/09 07:34:06;;;;;;;1.88;0.70;;;14.50;83.40;;;;;;5407739;26;19996;-67
2024/04/09 07:36:32;;;;;;;1.70;0.88;;;14.50;82.20;;;;;;5411426;26;20457;-68
2024/04/09 07:38:57;;;;;;;4.38;0.88;;;14.60;80.80;;;;;;5417261;26;20022;-65
2024/04/09 07:41:23;;;;;;;2.65;0.80;;;14.50;80.70;;;;;;5409426;26;20007;-65
2024/04/09 07:43:49;;;;;;;1.70;0.70;;;14.50;80.50;;;;;;5407891;26;20091;-65
2024/04/09 07:46:15;;;;;;;2.75;0.82;;;14.50;80.40;;;;;;5415713;26;19999;-65
2024/04/09 07:48:40;;;;;;;1.30;0.70;;;14.90;79.90;;;;;;5409564;26;20072;-65
2024/04/09 07:51:07;;;;;;;0.43;0.43;;;15.10;79.10;;;;;;5413615;26;20021;-66
2024/04/09 07:53:32;;;;;;;1.90;0.70;;;15.30;79.00;;;;;;5395804;26;20434;-65
2024/04/09 07:56:03;;;;;;;1.00;0.70;;;15.20;77.60;;;;;;5407752;26;20081;-65
2024/04/09 07:58:28;;;;;;;1.15;0.57;;;15.00;77.80;;;;;;5410627;26;20031;-67
2024/04/09 08:00:54;;;;;;;0.63;0.40;;;15.00;77.50;;;;;;5413218;26;20011;-66
2024/04/09 08:03:19;;;;;;;1.58;0.55;;;15.00;77.20;;;;;;5420897;26;20352;-65
2024/04/09 08:05:45;;;;;;;2.22;0.60;;;15.10;76.60;;;;;;5407640;26;20342;-65
2024/04/09 08:08:10;;;;;;;0.50;0.47;;;15.40;76.30;;;;;;5400545;26;20019;-66
2024/04/09 08:10:38;;;;;;;0.82;0.52;;;15.70;75.50;;;;;;5413077;26;20007;-65
2024/04/09 08:13:03;;;;;;;2.85;0.80;;;16.00;74.50;;;;;;5405535;26;20003;-64
2024/04/09 08:15:29;;;;;;;2.22;0.77;;;15.80;73.80;;;;;;5411713;26;20361;-65
2024/04/09 08:17:56;;;;;;;0.85;0.68;;;15.50;74.00;;;;;;5410186;26;20012;-64
2024/04/09 08:20:21;;;;;;;1.15;0.65;;;15.20;74.80;;;;;;5413796;26;20003;-65
2024/04/09 08:22:51;;;;;;;4.10;0.88;;;15.00;74.90;;;;;;5411741;26;20011;-66
2024/04/09 08:25:19;;;;;;;1.88;0.70;;;14.70;75.60;;;;;;5411383;26;20081;-65
2024/04/09 08:27:45;;;;;;;2.15;0.90;;;14.70;76.20;;;;;;5414366;26;20044;-67
2024/04/09 08:30:12;;;;;;;1.80;0.80;;;14.50;75.60;;;;;;5411070;26;20011;-65
2024/04/09 08:32:39;;;;;;;4.30;1.00;;;14.50;75.70;;;;;;5404249;26;19999;-65
2024/04/09 08:35:04;;;;;;;1.48;0.63;;;14.40;75.90;;;;;;5409975;26;20579;-66
2024/04/09 08:37:30;;;;;;;1.45;0.77;;;14.40;75.90;;;;;;5393218;26;20015;-65
2024/04/09 08:39:56;;;;;;;3.47;1.05;;;14.40;75.90;;;;;;5393222;26;20004;-65
2024/04/09 08:42:23;;;;;;;3.47;0.98;;;14.40;75.30;;;;;;5407009;26;20431;-66
2024/04/09 08:44:52;;;;;;;3.63;0.90;;;14.40;74.80;;;;;;5404282;26;20084;-64
2024/04/09 08:47:20;;;;;;;4.45;1.05;;;14.50;73.90;;;;;;5396193;26;20775;-64
2024/04/09 08:49:46;;;;;;;2.55;0.93;;;14.60;73.30;;;;;;5404854;26;19991;-65
2024/04/09 08:52:12;;;;;;;2.75;0.90;;;14.70;73.50;;;;;;5403095;26;20027;-66
2024/04/09 08:54:40;;;;;;;2.97;0.75;;;14.80;72.80;;;;;;5398598;26;20007;-65
2024/04/09 08:57:05;;;;;;;5.78;1.08;;;14.80;72.60;;;;;;5407640;26;20008;-65
2024/04/09 08:59:31;;;;;;;2.25;0.93;;;14.80;72.70;;;;;;5392957;26;20004;-65
2024/04/09 09:02:06;;;;;;;1.88;0.75;;;14.80;72.70;;;;;;5400489;26;20015;-65
2024/04/09 09:04:36;;;;;;;2.33;0.70;;;14.80;73.30;;;;;;5430720;26;20010;-65
2024/04/09 09:07:04;;;;;;;3.85;0.90;;;14.70;73.10;;;;;;5421288;26;20003;-64
2024/04/09 09:09:30;;;;;;;2.70;0.80;;;14.70;72.80;;;;;;5421398;26;19999;-65
2024/04/09 09:12:03;;;;;;;3.08;0.80;;;14.70;73.00;;;;;;5422317;26;20075;-65
2024/04/09 09:14:29;;;;;;;3.08;0.90;;;14.70;73.20;;;;;;5415217;26;20000;-66
2024/04/09 09:17:09;;;;;;;2.55;0.70;;;14.80;73.30;;;;;;5422244;26;20453;-66
2024/04/09 09:19:36;;;;;;;3.22;0.85;;;14.80;73.10;;;;;;5404831;26;20043;-64
2024/04/09 09:22:04;;;;;;;1.80;0.77;;;14.90;73.00;;;;;;5425952;26;20011;-65
2024/04/09 09:24:31;;;;;;;1.05;0.60;;;15.00;72.90;;;;;;5409568;26;19999;-65
2024/04/09 09:27:04;;;;;;;2.65;0.68;;;15.00;72.90;;;;;;5421872;26;20011;-65
2024/04/09 09:29:30;;;;;;;3.05;0.80;;;15.00;72.70;;;;;;5437712;26;20072;-66
2024/04/09 09:31:55;;;;;;;3.90;1.00;;;14.90;72.20;;;;;;5438689;26;20396;-66
2024/04/09 09:34:46;;;;;;;1.40;0.73;;;14.80;71.20;;;;;;5426744;26;20515;-64
2024/04/09 09:37:12;;;;;;;1.45;0.73;;;14.80;71.30;;;;;;5401136;26;20065;-66
2024/04/09 09:39:39;;;;;;;1.80;0.70;;;14.90;70.60;;;;;;5418016;26;20014;-66
2024/04/09 09:42:10;;;;;;;1.13;0.70;;;15.00;70.60;;;;;;5444670;26;20115;-65
2024/04/09 09:44:37;;;;;;;1.70;0.70;;;15.10;70.20;;;;;;5442957;26;20034;-66
2024/04/09 09:47:03;;;;;;;4.03;0.90;;;15.20;69.70;;;;;;5445140;26;19995;-63
2024/04/09 09:49:29;;;;;;;3.30;0.90;;;15.10;68.40;;;;;;5429756;26;19999;-64
2024/04/09 09:51:59;;;;;;;2.50;1.05;;;15.10;67.90;;;;;;5444835;26;19995;-65
2024/04/09 09:54:26;;;;;;;2.50;0.80;;;15.20;68.40;;;;;;5430596;26;20011;-66
2024/04/09 09:57:04;;;;;;;2.25;0.90;;;15.20;67.00;;;;;;5398919;26;20006;-66
2024/04/09 09:59:35;;;;;;;2.97;0.73;;;15.00;66.90;;;;;;5440534;26;20014;-65
2024/04/09 10:02:03;;;;;;;2.63;0.90;;;15.00;66.30;;;;;;5438148;26;20080;-66
2024/04/09 10:04:29;;;;;;;2.17;0.80;;;15.00;65.60;;;;;;5430188;26;19996;-66
2024/04/09 10:06:56;;;;;;;1.60;0.70;;;14.90;65.80;;;;;;5432728;26;20010;-66
2024/04/09 10:09:44;;;;;;;2.47;0.82;;;15.00;65.80;;;;;;5406713;26;20086;-64
2024/04/09 10:12:20;;;;;;;6.93;1.15;;;15.00;65.50;;;;;;5433643;26;20038;-64
2024/04/09 10:14:55;;;;;;;3.90;0.98;;;15.00;65.30;;;;;;5402613;26;20024;-65
2024/04/09 10:17:20;;;;;;;3.45;1.10;;;15.00;65.10;;;;;;5448914;26;20551;-65
2024/04/09 10:19:47;;;;;;;3.55;1.10;;;15.00;64.30;;;;;;5443991;26;20003;-65
2024/04/09 10:22:15;;;;;;;1.92;0.60;;;14.90;64.70;;;;;;5449716;26;20010;-66
2024/04/09 10:24:42;;;;;;;2.83;0.80;;;14.90;64.90;;;;;;5447822;26;20445;-66
2024/04/09 10:27:11;;;;;;;3.38;1.00;;;14.80;64.50;;;;;;5434790;26;19995;-65
2024/04/09 10:29:37;;;;;;;2.13;0.70;;;14.80;65.00;;;;;;5447245;26;20007;-66
2024/04/09 10:32:18;;;;;;;3.13;0.93;;;14.80;65.40;;;;;;5411794;26;20086;-65
2024/04/09 10:34:44;;;;;;;2.30;0.70;;;14.70;64.90;;;;;;5438619;26;20014;-65
2024/04/09 10:37:10;;;;;;;1.75;0.63;;;14.90;65.20;;;;;;5412126;26;20003;-65
2024/04/09 10:39:38;;;;;;;2.40;0.90;;;14.90;64.60;;;;;;5394328;26;20058;-65
2024/04/09 10:42:04;;;;;;;2.83;0.85;;;15.00;64.80;;;;;;5447889;26;20027;-65
2024/04/09 10:44:30;;;;;;;1.20;0.60;;;15.00;64.60;;;;;;5445826;26;19998;-65
2024/04/09 10:46:57;;;;;;;1.00;0.60;;;15.10;64.80;;;;;;5403899;26;20511;-66
2024/04/09 10:49:22;;;;;;;2.25;0.70;;;15.20;64.80;;;;;;5423335;26;19998;-66
2024/04/09 10:51:48;;;;;;;2.67;0.50;;;15.30;64.60;;;;;;5431731;26;20004;-65
2024/04/09 10:54:15;;;;;;;1.50;0.70;;;15.40;64.30;;;;;;5448004;26;20002;-66
2024/04/09 10:56:41;;;;;;;1.73;0.70;;;15.50;64.20;;;;;;5403779;26;20000;-66
2024/04/09 10:59:13;;;;;;;2.63;0.70;;;15.50;63.30;;;;;;5434602;26;20044;-65
2024/04/09 11:01:40;;;;;;;2.58;0.80;;;15.50;63.10;;;;;;5446777;26;20006;-66
2024/04/09 11:04:05;;;;;;;1.85;0.70;;;15.40;61.70;;;;;;5447890;26;20026;-66
2024/04/09 11:06:31;;;;;;;1.95;0.70;;;15.50;62.60;;;;;;5420787;26;20014;-66
2024/04/09 11:08:57;;;;;;;2.88;0.70;;;15.50;62.60;;;;;;5414390;26;20480;-66
2024/04/09 11:11:23;;;;;;;2.85;0.73;;;15.60;62.30;;;;;;5439330;26;20010;-64
2024/04/09 11:13:48;;;;;;;3.20;0.98;;;15.60;61.80;;;;;;5401655;26;19996;-66
2024/04/09 11:16:18;;;;;;;3.20;0.80;;;15.40;61.30;;;;;;5423462;26;19999;-66
2024/04/09 11:18:56;;;;;;;2.15;0.85;;;15.40;61.80;;;;;;5433345;26;19999;-65
2024/04/09 11:21:22;;;;;;;0.63;0.45;;;15.40;61.70;;;;;;5448528;26;20078;-66
2024/04/09 11:23:49;;;;;;;2.55;0.70;;;15.30;61.80;;;;;;5431185;26;20007;-66
2024/04/09 11:26:15;;;;;;;1.52;0.70;;;15.40;62.20;;;;;;5436529;26;20003;-66
2024/04/09 11:28:49;;;;;;;1.40;0.70;;;15.40;61.70;;;;;;5411217;26;20047;-66
2024/04/09 11:31:15;;;;;;;2.25;0.73;;;15.30;61.50;;;;;;5407129;26;20008;-64
2024/04/09 11:33:40;;;;;;;1.75;0.70;;;15.30;61.30;;;;;;5399281;26;20108;-66
2024/04/09 11:36:09;;;;;;;1.25;0.70;;;15.20;61.30;;;;;;5411663;26;20356;-66
2024/04/09 11:38:35;;;;;;;1.30;0.50;;;15.20;61.60;;;;;;5406543;26;20015;-65
2024/04/09 11:41:01;;;;;;;1.67;0.95;;;15.20;61.40;;;;;;5398765;26;20000;-66
2024/04/09 11:43:27;;;;;;;1.15;0.60;;;15.30;61.80;;;;;;5438960;26;20006;-65
2024/04/09 11:45:58;;;;;;;1.83;0.88;;;15.30;61.70;;;;;;5407025;26;20003;-66
2024/04/09 11:48:24;;;;;;;1.30;0.60;;;15.40;61.40;;;;;;5435722;26;20004;-65
2024/04/09 11:50:50;;;;;;;3.15;0.82;;;15.40;60.60;;;;;;5423173;26;20021;-64
2024/04/09 11:53:16;;;;;;;3.28;0.65;;;15.50;61.00;;;;;;5409385;26;20000;-65
2024/04/09 11:55:41;;;;;;;1.20;0.70;;;15.70;60.60;;;;;;5411138;26;20017;-66
2024/04/09 11:58:07;;;;;;;3.00;0.70;;;15.80;60.50;;;;;;5406889;26;20509;-65
2024/04/09 12:00:32;;;;;;;1.45;0.70;;;15.90;59.90;;;;;;5420261;26;20005;-64
2024/04/09 12:02:59;;;;;;;1.58;0.73;;;15.80;59.00;;;;;;5439815;26;20414;-65
2024/04/09 12:05:24;;;;;;;2.70;0.90;;;15.60;58.80;;;;;;5410977;26;20023;-65
2024/04/09 12:07:50;;;;;;;1.45;0.60;;;15.60;59.30;;;;;;5415962;26;20007;-65
2024/04/09 12:10:16;;;;;;;1.70;0.75;;;15.40;59.10;;;;;;5416642;26;20011;-67
2024/04/09 12:12:41;;;;;;;0.98;0.70;;;15.40;59.50;;;;;;5443139;26;20038;-64
2024/04/09 12:15:10;;;;;;;4.47;0.80;;;15.40;60.00;;;;;;5434431;26;19999;-64
2024/04/09 12:17:36;;;;;;;4.40;0.90;;;15.40;60.00;;;;;;5406110;26;20006;-64
2024/04/09 12:20:04;;;;;;;3.20;0.60;;;15.30;59.20;;;;;;5411704;26;19995;-63
2024/04/09 12:22:30;;;;;;;2.45;0.60;;;15.30;59.60;;;;;;5433824;26;20006;-66
2024/04/09 12:24:56;;;;;;;1.95;0.93;;;15.30;59.60;;;;;;5442554;26;20496;-64
2024/04/09 12:27:22;;;;;;;1.63;0.52;;;15.20;59.40;;;;;;5412002;26;20011;-65
2024/04/09 12:29:47;;;;;;;2.03;0.60;;;15.20;59.90;;;;;;5426210;26;20014;-64
2024/04/09 12:32:13;;;;;;;3.28;0.70;;;15.20;60.30;;;;;;5421292;26;19996;-65
2024/04/09 12:34:39;;;;;;;1.27;0.57;;;15.20;59.80;;;;;;5417177;26;20013;-66
2024/04/09 12:37:06;;;;;;;1.35;0.60;;;15.20;60.10;;;;;;5420094;26;20010;-65
2024/04/09 12:39:32;;;;;;;2.30;0.70;;;15.20;60.50;;;;;;5425892;26;20081;-64
2024/04/09 12:42:01;;;;;;;1.65;0.63;;;15.20;60.50;;;;;;5402792;26;20034;-66
2024/04/09 12:44:27;;;;;;;2.92;0.60;;;15.30;60.50;;;;;;5410797;26;19999;-66
2024/04/09 12:46:53;;;;;;;2.60;0.80;;;15.30;60.10;;;;;;5422157;26;19995;-66